Terminal Aerodrome Forecast
Issued by NWS

Home | Current Version | Previous Version | Text Only | Print | Product List | Glossary On
Versions: 1 2 3 4 5 6 7 8 9 10 11 12 13 14 15 16 17 18 19 20 21 22
000
FTUS42 KMHX 270535
TAFPGV
TAF
KPGV 270535Z 2706/2806 21009KT P6SM SCT050 OVC150
     FM270900 21009KT 6SM -RA BR OVC015
     FM271200 24008KT 4SM -RA BR OVC008
     FM271500 02012G18KT 3SM -RA BR OVC007
     FM280200 36008KT P6SM OVC015
      AMD LTD TO CLD VIS AND WIND=

USA.gov is the U.S. government's official web portal to all federal, state and local government web resources and services.